Time;durP1;ratioP1;P1;durP2;ratioP2;P2;SDS_P1;SDS_P2;PMS_P1;PMS_P2;Temp;Humidity;BMP_temperature;BMP_pressure;BME280_temperature;BME280_humidity;BME280_pressure;Samples;Min_cycle;Max_cycle;Signal;HPM_P1;HPM_P2
2021/10/18 00:00:17;;;;;;;50.90;35.27;;;8.30;1.00;10.00;101209.00;;;;4976127;28;21052;-77
2021/10/18 00:02:45;;;;;;;49.17;36.37;;;8.30;1.00;10.00;101223.00;;;;4959909;28;20539;-76
2021/10/18 00:05:17;;;;;;;51.57;35.73;;;8.30;1.00;9.90;101217.00;;;;4959452;28;20576;-78
2021/10/18 00:07:45;;;;;;;45.53;34.37;;;8.30;1.00;9.60;101228.00;;;;4960376;28;20550;-77
2021/10/18 00:10:15;;;;;;;43.93;35.20;;;8.20;1.00;9.90;101214.00;;;;4958911;28;20484;-75
2021/10/18 00:12:44;;;;;;;47.90;34.03;;;8.30;1.00;9.90;101227.00;;;;4961690;28;20615;-76
2021/10/18 00:15:16;;;;;;;45.03;34.30;;;8.20;1.00;9.80;101221.00;;;;4959167;28;20530;-75
2021/10/18 00:17:44;;;;;;;45.80;34.20;;;8.20;1.00;9.80;101221.00;;;;4959336;28;20486;-76
2021/10/18 00:20:16;;;;;;;45.03;32.70;;;8.20;1.00;9.80;101227.00;;;;4961219;28;20465;-76
2021/10/18 00:22:45;;;;;;;48.63;35.77;;;8.10;1.00;9.70;101206.00;;;;4963597;28;20456;-76
2021/10/18 00:25:14;;;;;;;44.73;34.10;;;8.00;1.00;9.70;101236.00;;;;4970742;28;20502;-75
2021/10/18 00:27:42;;;;;;;48.17;33.00;;;8.00;1.00;9.70;101231.00;;;;4966177;28;20547;-75
2021/10/18 00:30:12;;;;;;;45.83;34.30;;;8.00;1.00;9.60;101261.00;;;;4955481;28;20480;-75
2021/10/18 00:32:42;;;;;;;48.33;36.20;;;7.90;1.00;9.60;101244.00;;;;4961699;28;20720;-75
2021/10/18 00:35:15;;;;;;;45.40;32.80;;;7.90;1.00;9.10;101229.00;;;;4959913;28;20542;-78
2021/10/18 00:37:44;;;;;;;47.47;35.47;;;8.00;1.00;9.50;101236.00;;;;4964821;28;20475;-77
2021/10/18 00:40:13;;;;;;;48.10;36.73;;;7.80;1.00;9.40;101235.00;;;;4990342;28;20478;-75
2021/10/18 00:42:42;;;;;;;44.33;33.67;;;7.80;1.00;9.40;101235.00;;;;4978589;28;20440;-74
2021/10/18 00:45:11;;;;;;;44.20;32.80;;;7.80;1.00;9.40;101232.00;;;;4978868;28;20460;-75
2021/10/18 00:47:40;;;;;;;51.90;35.90;;;7.90;1.00;9.40;101232.00;;;;4979234;28;20459;-75
2021/10/18 00:50:10;;;;;;;47.30;34.83;;;7.80;1.00;9.40;101208.00;;;;4994134;28;20472;-75
2021/10/18 00:52:41;;;;;;;44.40;35.80;;;7.70;1.00;9.40;101182.00;;;;4976880;28;20476;-76
2021/10/18 00:55:10;;;;;;;44.13;33.17;;;7.60;1.00;9.40;101250.00;;;;4976740;28;20479;-75
2021/10/18 00:57:39;;;;;;;39.60;33.50;;;7.70;1.00;9.10;101278.00;;;;4976521;28;20503;-78
2021/10/18 01:00:09;;;;;;;45.33;33.37;;;7.70;1.00;9.30;101232.00;;;;4978558;28;20463;-77
2021/10/18 01:02:38;;;;;;;42.93;32.67;;;7.60;1.00;9.30;101233.00;;;;4979522;28;20515;-75
2021/10/18 01:05:08;;;;;;;42.10;31.50;;;7.60;1.00;9.40;101237.00;;;;4974549;28;20480;-74
2021/10/18 01:07:38;;;;;;;39.60;32.20;;;7.60;1.00;9.30;101245.00;;;;4973208;28;20479;-75
2021/10/18 01:10:08;;;;;;;45.40;33.33;;;7.70;1.00;9.40;101226.00;;;;4972691;28;20568;-75
2021/10/18 01:12:36;;;;;;;43.03;32.97;;;7.70;1.00;9.40;101081.00;;;;4970514;28;20495;-75
2021/10/18 01:15:06;;;;;;;40.80;32.30;;;7.60;1.00;9.40;101241.00;;;;4975520;28;20829;-75
2021/10/18 01:17:34;;;;;;;47.60;33.10;;;7.60;1.00;9.30;101246.00;;;;4973719;28;20467;-74
2021/10/18 01:20:04;;;;;;;41.47;32.70;;;7.60;1.00;9.50;101230.00;;;;4975651;28;20468;-73
2021/10/18 01:22:34;;;;;;;40.07;32.70;;;7.70;1.00;9.60;101265.00;;;;4974256;28;20464;-74
2021/10/18 01:25:02;;;;;;;37.80;29.57;;;7.70;1.00;9.60;101248.00;;;;4971550;28;20594;-75
2021/10/18 01:27:30;;;;;;;39.13;31.43;;;7.80;1.00;9.70;101244.00;;;;4976006;28;20467;-75
2021/10/18 01:29:59;;;;;;;40.77;31.43;;;7.80;1.00;9.50;101222.00;;;;4978851;28;20480;-76
2021/10/18 01:32:27;;;;;;;42.00;32.30;;;7.90;1.00;9.70;101255.00;;;;4977238;28;20476;-75
2021/10/18 01:34:55;;;;;;;42.80;31.13;;;8.00;1.00;9.80;101204.00;;;;4975942;28;20499;-73
2021/10/18 01:37:24;;;;;;;45.93;31.90;;;8.00;1.00;9.80;101147.00;;;;4973902;28;20448;-75
2021/10/18 01:39:53;;;;;;;41.03;31.60;;;7.90;1.00;9.90;101241.00;;;;4975058;28;20574;-75
2021/10/18 01:42:22;;;;;;;40.53;30.60;;;8.00;1.00;10.00;101234.00;;;;4975749;28;20450;-76
2021/10/18 01:44:50;;;;;;;40.60;31.43;;;8.20;1.00;10.00;101253.00;;;;4979297;28;20586;-75
2021/10/18 01:47:19;;;;;;;38.60;30.90;;;8.20;1.00;10.10;101232.00;;;;4971032;28;20464;-76
2021/10/18 01:49:48;;;;;;;36.57;30.43;;;8.20;1.00;10.20;101257.00;;;;4965595;28;20503;-76
2021/10/18 01:52:16;;;;;;;36.90;31.33;;;8.20;1.00;9.80;101257.00;;;;4964938;28;20453;-76
2021/10/18 01:54:45;;;;;;;35.87;30.57;;;8.20;1.00;10.20;101237.00;;;;4966950;28;20476;-75
2021/10/18 01:57:14;;;;;;;37.43;28.77;;;8.20;1.00;10.30;101241.00;;;;4963547;28;20496;-75
2021/10/18 01:59:46;;;;;;;35.97;29.27;;;8.30;1.00;10.30;101234.00;;;;4959772;28;21311;-77
2021/10/18 02:02:14;;;;;;;33.73;28.87;;;8.40;1.00;10.40;101220.00;;;;4962749;28;20456;-75
2021/10/18 02:04:56;;;;;;;36.30;27.87;;;8.40;1.00;10.40;101237.00;;;;4965094;28;20483;-75
2021/10/18 02:07:24;;;;;;;36.10;28.47;;;8.50;1.00;10.40;101251.00;;;;4961444;28;20967;-76
2021/10/18 02:09:53;;;;;;;34.23;27.20;;;8.50;1.00;10.40;101232.00;;;;4962763;28;20558;-76
2021/10/18 02:12:24;;;;;;;35.73;27.80;;;8.50;1.00;10.40;101240.00;;;;4959660;28;20470;-76
2021/10/18 02:14:55;;;;;;;31.77;26.07;;;8.60;1.00;10.40;101164.00;;;;4963098;28;20482;-77
2021/10/18 02:17:24;;;;;;;35.70;27.50;;;8.60;1.00;10.50;101237.00;;;;4967471;28;20441;-74
2021/10/18 02:19:54;;;;;;;33.23;26.80;;;8.60;1.00;10.50;101251.00;;;;4983399;28;20544;-75
2021/10/18 02:22:22;;;;;;;35.03;25.70;;;8.60;1.00;10.50;101242.00;;;;4978092;28;20472;-76
2021/10/18 02:24:51;;;;;;;31.73;26.30;;;8.60;1.00;10.40;101233.00;;;;4976151;28;20595;-76
2021/10/18 02:27:19;;;;;;;30.90;24.53;;;8.70;1.00;10.20;101239.00;;;;4989247;28;20558;-74
2021/10/18 02:29:49;;;;;;;34.13;25.40;;;8.70;1.00;10.50;101254.00;;;;4971344;28;20515;-77
2021/10/18 02:32:18;;;;;;;34.83;25.63;;;8.80;1.00;10.60;101257.00;;;;4965234;28;20459;-77
2021/10/18 02:34:46;;;;;;;33.10;24.57;;;8.80;1.00;10.60;101262.00;;;;4961424;28;20473;-75
2021/10/18 02:37:14;;;;;;;36.80;25.00;;;8.80;1.00;10.60;101251.00;;;;4955759;28;20444;-76
2021/10/18 02:39:44;;;;;;;30.00;23.37;;;8.80;1.00;10.60;101230.00;;;;4952659;28;20463;-75
2021/10/18 02:42:12;;;;;;;33.07;24.37;;;8.80;1.00;10.60;101247.00;;;;4953064;28;20464;-75
2021/10/18 02:44:40;;;;;;;33.70;24.27;;;8.80;1.00;10.60;101207.00;;;;4968993;28;20492;-75
2021/10/18 02:47:10;;;;;;;32.40;24.17;;;8.90;1.00;10.70;101231.00;;;;4948385;28;20468;-75
2021/10/18 02:49:38;;;;;;;30.53;23.17;;;8.90;1.00;10.70;101245.00;;;;4949614;28;20807;-77
2021/10/18 02:52:08;;;;;;;35.40;24.27;;;8.90;1.00;10.70;101232.00;;;;4947935;28;20491;-75
2021/10/18 02:54:39;;;;;;;33.77;23.43;;;8.90;1.00;10.80;101233.00;;;;4953009;28;20538;-75
2021/10/18 02:57:07;;;;;;;27.43;23.27;;;9.00;1.00;10.80;101243.00;;;;4950886;28;20466;-76
2021/10/18 02:59:38;;;;;;;26.50;22.50;;;9.00;1.00;10.80;101248.00;;;;4954626;28;20460;-75
2021/10/18 03:02:10;;;;;;;28.93;22.37;;;9.00;1.00;10.70;101241.00;;;;4952484;28;20479;-75
2021/10/18 03:04:40;;;;;;;30.70;23.13;;;9.00;1.00;10.70;101252.00;;;;4952377;28;20480;-75
2021/10/18 03:07:08;;;;;;;38.20;22.93;;;9.00;1.00;10.60;101251.00;;;;4958387;28;20615;-76
2021/10/18 03:09:36;;;;;;;34.87;23.90;;;9.00;1.00;10.70;101261.00;;;;4954649;28;20452;-76
2021/10/18 03:12:05;;;;;;;28.57;21.40;;;9.10;1.00;10.70;101275.00;;;;4972869;28;21726;-75
2021/10/18 03:14:34;;;;;;;30.73;22.57;;;9.10;1.00;10.70;101243.00;;;;4958351;28;20476;-74
2021/10/18 03:17:02;;;;;;;28.20;21.13;;;9.10;1.00;10.80;101263.00;;;;4953106;28;20468;-75
2021/10/18 03:19:32;;;;;;;30.53;23.43;;;9.20;1.00;10.80;101257.00;;;;4963992;28;20855;-76
2021/10/18 03:22:01;;;;;;;31.63;22.23;;;9.10;1.00;10.90;101247.00;;;;4958480;28;20494;-76
2021/10/18 03:24:29;;;;;;;32.80;23.97;;;9.10;1.00;10.80;101248.00;;;;4962451;28;20497;-76
2021/10/18 03:26:58;;;;;;;27.77;22.93;;;9.10;1.00;10.90;101254.00;;;;4962684;28;20470;-76
2021/10/18 03:29:28;;;;;;;27.20;21.40;;;9.20;1.00;10.90;101202.00;;;;4963885;28;20463;-75
2021/10/18 03:31:56;;;;;;;29.07;22.67;;;9.20;1.00;10.90;101237.00;;;;4959053;28;20952;-76
2021/10/18 03:34:24;;;;;;;29.90;23.60;;;9.20;1.00;10.90;101258.00;;;;4958485;28;20480;-76
2021/10/18 03:36:54;;;;;;;28.73;22.00;;;9.10;1.00;10.80;101226.00;;;;4962430;28;20459;-76
2021/10/18 03:39:22;;;;;;;28.93;22.03;;;9.10;1.00;10.70;101281.00;;;;4966211;28;20464;-77
2021/10/18 03:41:51;;;;;;;30.80;22.10;;;9.10;1.00;10.70;101243.00;;;;4956557;28;20487;-75
2021/10/18 03:44:20;;;;;;;31.43;23.40;;;9.20;1.00;10.80;101267.00;;;;4962312;28;20479;-76
2021/10/18 03:46:48;;;;;;;32.30;23.37;;;9.20;1.00;10.90;101252.00;;;;4955483;28;20971;-75
2021/10/18 03:49:16;;;;;;;30.87;24.17;;;9.20;1.00;10.90;101276.00;;;;4959992;28;20473;-77
2021/10/18 03:51:45;;;;;;;28.50;23.40;;;9.20;1.00;10.90;101255.00;;;;4958294;28;20514;-77
2021/10/18 03:54:15;;;;;;;40.03;27.47;;;9.30;1.00;10.90;101310.00;;;;4974913;28;20483;-75
2021/10/18 03:56:43;;;;;;;32.60;24.67;;;9.30;1.00;10.90;101269.00;;;;4947502;28;20543;-76
2021/10/18 03:59:12;;;;;;;38.13;28.00;;;9.30;1.00;10.90;101274.00;;;;4959519;28;20491;-76
2021/10/18 04:01:41;;;;;;;68.03;37.10;;;9.30;1.00;10.90;101285.00;;;;4957602;28;21023;-76
2021/10/18 04:04:10;;;;;;;73.57;38.60;;;9.30;1.00;10.90;101292.00;;;;4961296;28;20467;-75
2021/10/18 04:06:39;;;;;;;70.57;39.27;;;9.40;1.00;11.00;101296.00;;;;4959343;28;20456;-75
2021/10/18 04:09:07;;;;;;;70.73;36.20;;;9.40;1.00;11.00;101291.00;;;;4950992;28;20452;-74
2021/10/18 04:11:39;;;;;;;60.50;36.30;;;9.40;1.00;11.10;101301.00;;;;4959004;28;21122;-78
2021/10/18 04:14:08;;;;;;;63.13;34.30;;;9.40;1.00;11.10;101295.00;;;;4973389;28;20463;-75
2021/10/18 04:16:37;;;;;;;70.20;38.13;;;9.50;1.00;11.20;101303.00;;;;4951198;28;20461;-75
2021/10/18 04:19:06;;;;;;;55.80;34.17;;;9.40;1.00;11.20;101301.00;;;;4961348;28;20460;-75
2021/10/18 04:21:35;;;;;;;57.43;33.77;;;9.50;1.00;11.20;101308.00;;;;4957833;28;20460;-74
2021/10/18 04:24:03;;;;;;;54.53;33.80;;;9.60;1.00;11.30;101163.00;;;;4948978;28;20486;-76
2021/10/18 04:26:32;;;;;;;55.97;34.53;;;9.70;1.00;11.30;101237.00;;;;4959133;28;20566;-77
2021/10/18 04:29:01;;;;;;;58.03;33.47;;;9.70;1.00;11.10;101138.00;;;;4959511;28;20452;-77
2021/10/18 04:31:30;;;;;;;62.17;35.20;;;9.70;1.00;11.30;101289.00;;;;4957654;28;20468;-78
2021/10/18 04:33:59;;;;;;;55.53;33.70;;;9.80;1.00;11.30;101313.00;;;;4957112;28;20571;-77
2021/10/18 04:36:28;;;;;;;62.23;36.63;;;9.70;1.00;11.30;101297.00;;;;4972304;28;20921;-75
2021/10/18 04:38:57;;;;;;;66.43;38.20;;;9.70;1.00;11.20;101317.00;;;;4958663;28;20876;-75
2021/10/18 04:41:25;;;;;;;74.00;39.83;;;9.70;1.00;11.20;101294.00;;;;4958849;28;20467;-74
2021/10/18 04:43:54;;;;;;;71.90;37.80;;;9.70;1.00;11.10;101314.00;;;;4958903;28;20484;-76
2021/10/18 04:46:23;;;;;;;71.97;39.20;;;9.70;1.00;11.10;101325.00;;;;4961627;28;20455;-78
2021/10/18 04:48:52;;;;;;;55.80;33.20;;;9.80;1.00;11.10;101315.00;;;;4959773;28;20468;-76
2021/10/18 04:51:20;;;;;;;66.77;36.37;;;9.70;1.00;11.10;101340.00;;;;4960432;28;20991;-76
2021/10/18 04:53:48;;;;;;;63.03;36.50;;;9.80;1.00;11.20;101335.00;;;;4959929;28;20479;-74
2021/10/18 04:56:17;;;;;;;63.60;37.00;;;9.80;1.00;11.30;101340.00;;;;4955655;28;20472;-75
2021/10/18 04:58:45;;;;;;;61.03;35.73;;;9.70;1.00;11.30;101339.00;;;;4955786;28;20453;-78
2021/10/18 05:01:13;;;;;;;59.13;33.70;;;9.80;1.00;11.30;101350.00;;;;4956766;28;20985;-77
2021/10/18 05:03:43;;;;;;;67.73;33.43;;;9.80;1.00;11.20;101341.00;;;;4960214;28;20476;-78
2021/10/18 05:06:11;;;;;;;67.10;35.27;;;9.70;1.00;11.20;101339.00;;;;4960297;28;20463;-75
2021/10/18 05:08:40;;;;;;;69.70;35.90;;;9.70;1.00;11.10;101345.00;;;;4957796;28;20845;-76
2021/10/18 05:11:08;;;;;;;62.13;33.30;;;9.70;1.00;11.10;101335.00;;;;4962164;28;20944;-75
2021/10/18 05:13:37;;;;;;;56.23;32.10;;;9.70;1.00;10.70;101309.00;;;;4957350;28;20547;-78
2021/10/18 05:16:05;;;;;;;54.47;31.90;;;9.70;1.00;11.00;101336.00;;;;4960641;28;20991;-75
2021/10/18 05:18:34;;;;;;;62.37;32.60;;;9.60;1.00;10.80;101356.00;;;;4967543;28;20456;-79
2021/10/18 05:21:06;;;;;;;55.07;30.13;;;9.70;1.00;11.00;101344.00;;;;4972306;28;20463;-75
2021/10/18 05:23:34;;;;;;;57.90;30.10;;;9.60;1.00;11.00;101343.00;;;;4972550;28;20476;-77
2021/10/18 05:26:04;;;;;;;64.37;31.00;;;9.60;1.00;11.10;101334.00;;;;4956478;28;20571;-79
2021/10/18 05:28:33;;;;;;;50.43;29.33;;;9.60;1.00;11.10;101350.00;;;;4958585;28;20535;-74
2021/10/18 05:31:01;;;;;;;59.53;30.43;;;9.70;1.00;11.20;101349.00;;;;4973840;28;20836;-75
2021/10/18 05:33:29;;;;;;;58.53;30.20;;;9.70;1.00;11.30;101349.00;;;;4959537;28;20479;-76
2021/10/18 05:35:58;;;;;;;50.30;28.37;;;9.70;1.00;11.30;101359.00;;;;4957423;28;20533;-77
2021/10/18 05:38:27;;;;;;;52.87;28.13;;;9.70;1.00;11.30;101356.00;;;;4958060;28;20890;-76
2021/10/18 05:40:56;;;;;;;52.80;29.40;;;9.70;1.00;11.20;101372.00;;;;4959178;28;20567;-79
2021/10/18 05:43:24;;;;;;;53.67;29.03;;;9.70;1.00;11.20;101360.00;;;;4958931;28;20491;-75
2021/10/18 05:45:52;;;;;;;51.63;28.87;;;9.70;1.00;11.20;101380.00;;;;4951400;28;20472;-76
2021/10/18 05:48:21;;;;;;;56.57;30.13;;;9.70;1.00;11.20;101252.00;;;;4959484;28;20457;-75
2021/10/18 05:50:51;;;;;;;58.50;30.60;;;9.70;1.00;11.20;101367.00;;;;4956663;28;21446;-75
2021/10/18 05:53:20;;;;;;;64.03;30.87;;;9.70;1.00;11.20;101373.00;;;;4959547;28;20496;-74
2021/10/18 05:55:50;;;;;;;65.93;30.90;;;9.70;1.00;11.30;101368.00;;;;4957688;28;20459;-75
2021/10/18 05:58:19;;;;;;;54.47;32.27;;;9.80;1.00;11.30;101381.00;;;;4957874;28;20888;-75
2021/10/18 06:00:50;;;;;;;57.43;30.20;;;9.80;1.00;11.30;101372.00;;;;4960376;28;20455;-75
2021/10/18 06:03:19;;;;;;;53.80;31.37;;;9.80;1.00;11.30;101371.00;;;;4955903;28;20511;-73
2021/10/18 06:05:48;;;;;;;53.57;29.70;;;9.80;1.00;11.20;101351.00;;;;4956574;28;21052;-75
2021/10/18 06:08:36;;;;;;;60.40;30.07;;;9.80;1.00;11.30;101357.00;;;;4963137;28;20534;-75
2021/10/18 06:11:06;;;;;;;76.70;32.70;;;9.80;1.00;11.30;101378.00;;;;4965768;28;20564;-77
2021/10/18 06:13:35;;;;;;;59.23;31.93;;;9.80;1.00;11.30;101365.00;;;;4962888;28;20534;-78
2021/10/18 06:16:03;;;;;;;53.57;29.73;;;9.80;1.00;11.40;101267.00;;;;4963569;28;20930;-76
2021/10/18 06:18:32;;;;;;;67.20;31.10;;;9.90;1.00;11.40;101365.00;;;;4964520;28;20463;-74
2021/10/18 06:21:00;;;;;;;62.07;32.90;;;9.90;1.00;11.50;101363.00;;;;4962922;28;20471;-75
2021/10/18 06:23:29;;;;;;;70.60;33.00;;;9.90;1.00;11.50;101365.00;;;;4956380;28;20487;-75
2021/10/18 06:25:57;;;;;;;65.83;32.57;;;10.00;1.00;11.50;101369.00;;;;4959661;28;20541;-77
2021/10/18 06:28:27;;;;;;;54.33;31.40;;;10.00;1.00;11.50;101374.00;;;;4957234;28;20468;-75
2021/10/18 06:30:56;;;;;;;62.70;31.90;;;10.00;1.00;11.60;101379.00;;;;4960956;28;20451;-75
2021/10/18 06:33:26;;;;;;;68.30;33.83;;;10.10;1.00;11.40;101386.00;;;;4957942;28;20496;-76
2021/10/18 06:35:54;;;;;;;82.77;37.00;;;10.00;1.00;11.70;101383.00;;;;4959230;28;20448;-75
2021/10/18 06:38:24;;;;;;;77.33;34.60;;;10.00;1.00;11.60;101391.00;;;;4956392;28;20472;-74
2021/10/18 06:40:57;;;;;;;76.30;34.87;;;10.00;1.00;11.60;101384.00;;;;4972628;28;20456;-74
2021/10/18 06:43:27;;;;;;;66.23;35.03;;;10.00;1.00;11.70;101389.00;;;;4955659;28;20522;-75
2021/10/18 06:45:56;;;;;;;58.07;31.57;;;10.10;1.00;11.70;101402.00;;;;4959332;28;20462;-78
2021/10/18 06:48:24;;;;;;;58.20;31.77;;;10.20;1.00;11.60;101403.00;;;;4957180;28;20522;-76
2021/10/18 06:50:53;;;;;;;72.03;32.73;;;10.20;1.00;11.80;101405.00;;;;4957499;28;20535;-75
2021/10/18 06:53:30;;;;;;;55.10;30.60;;;10.30;1.00;11.90;101404.00;;;;4956123;28;20487;-76
2021/10/18 06:56:02;;;;;;;51.37;29.80;;;10.30;1.00;11.90;101407.00;;;;4954055;28;20464;-76
2021/10/18 06:58:32;;;;;;;54.43;28.73;;;10.30;1.00;12.00;101413.00;;;;4951879;28;20456;-75
2021/10/18 07:01:01;;;;;;;47.20;29.50;;;10.40;1.00;12.00;101406.00;;;;4949245;28;20912;-76
2021/10/18 07:03:30;;;;;;;42.70;27.20;;;10.40;1.00;12.20;101409.00;;;;4953559;28;20484;-76
2021/10/18 07:06:01;;;;;;;41.23;27.20;;;10.50;1.00;12.30;101404.00;;;;4953745;28;20460;-75
2021/10/18 07:08:29;;;;;;;37.63;24.80;;;10.70;1.00;12.40;101424.00;;;;4944058;28;20460;-75
2021/10/18 07:10:57;;;;;;;36.77;23.90;;;11.00;1.00;12.40;101419.00;;;;4951703;28;20497;-77
2021/10/18 07:13:26;;;;;;;39.33;24.90;;;11.00;1.00;12.50;101437.00;;;;4950576;28;20495;-75
2021/10/18 07:15:56;;;;;;;36.80;25.43;;;11.00;1.00;12.50;101428.00;;;;4950611;28;20460;-75
2021/10/18 07:18:24;;;;;;;38.03;25.97;;;10.90;1.00;12.50;101427.00;;;;4952165;28;20453;-76
2021/10/18 07:20:52;;;;;;;35.67;25.70;;;10.90;1.00;12.50;101431.00;;;;4949856;28;20530;-75
2021/10/18 07:23:21;;;;;;;40.20;26.10;;;10.90;1.00;12.50;101415.00;;;;4949117;28;20491;-75
2021/10/18 07:25:49;;;;;;;38.33;26.80;;;10.90;1.00;12.60;101436.00;;;;4950587;28;20477;-75
2021/10/18 07:28:17;;;;;;;36.40;24.83;;;10.90;1.00;12.60;101429.00;;;;4955097;28;20455;-75
2021/10/18 07:30:46;;;;;;;35.83;25.30;;;11.00;1.00;12.60;101443.00;;;;4951481;28;21120;-76
2021/10/18 07:33:16;;;;;;;33.07;23.70;;;11.00;1.00;12.80;101452.00;;;;4947954;28;20583;-75
2021/10/18 07:35:45;;;;;;;38.63;24.13;;;11.00;1.00;12.80;101459.00;;;;4954716;28;20814;-75
2021/10/18 07:38:13;;;;;;;38.70;24.00;;;11.20;1.00;12.90;101452.00;;;;4947647;28;20901;-76
2021/10/18 07:40:42;;;;;;;34.43;24.20;;;11.20;1.00;13.00;101433.00;;;;4953349;28;20460;-76
2021/10/18 07:43:10;;;;;;;34.47;25.30;;;11.20;1.00;13.00;101466.00;;;;4974556;28;21075;-75
2021/10/18 07:45:39;;;;;;;34.60;26.10;;;11.20;1.00;13.00;101414.00;;;;4955582;28;20764;-77
2021/10/18 07:48:07;;;;;;;36.53;27.60;;;11.20;1.00;13.00;101451.00;;;;4959144;28;20460;-76
2021/10/18 07:50:37;;;;;;;32.30;24.00;;;11.20;1.00;13.10;101453.00;;;;4953948;28;20561;-76
2021/10/18 07:53:06;;;;;;;30.97;24.87;;;11.30;1.00;13.20;101467.00;;;;4963523;28;20483;-75
2021/10/18 07:55:37;;;;;;;34.83;25.50;;;11.30;1.00;13.20;101460.00;;;;4963064;28;20471;-77
2021/10/18 07:58:20;;;;;;;30.30;24.00;;;11.30;1.00;13.20;101460.00;;;;4964371;28;20522;-76
2021/10/18 08:00:50;;;;;;;40.40;26.93;;;11.40;1.00;12.50;101426.00;;;;4962053;28;20520;-77
2021/10/18 08:03:18;;;;;;;40.67;31.73;;;11.40;1.00;13.10;101430.00;;;;4957657;28;20500;-77
2021/10/18 08:05:49;;;;;;;40.33;31.73;;;11.30;1.00;13.20;101456.00;;;;4952208;28;20479;-76
2021/10/18 08:08:22;;;;;;;41.87;30.97;;;11.30;1.00;13.20;101445.00;;;;4949480;28;20483;-74
2021/10/18 08:10:51;;;;;;;42.10;32.80;;;11.30;1.00;13.30;101449.00;;;;4959659;28;20515;-74
2021/10/18 08:13:20;;;;;;;42.27;31.77;;;11.40;1.00;13.30;101452.00;;;;4974562;28;20492;-74
2021/10/18 08:15:48;;;;;;;42.70;30.43;;;11.50;1.00;13.40;101419.00;;;;4977723;28;20474;-75
2021/10/18 08:18:16;;;;;;;40.07;31.30;;;11.50;1.00;13.40;101434.00;;;;4976819;28;21106;-75
2021/10/18 08:20:45;;;;;;;44.63;32.20;;;11.60;1.00;13.40;101442.00;;;;4975854;28;20460;-76
2021/10/18 08:23:14;;;;;;;41.47;31.97;;;11.60;1.00;13.50;101435.00;;;;4962946;28;20464;-77
2021/10/18 08:25:43;;;;;;;49.50;32.87;;;11.80;1.00;13.50;101442.00;;;;4971849;28;20468;-77
2021/10/18 08:28:12;;;;;;;38.93;31.93;;;11.80;1.00;13.50;101449.00;;;;4981321;28;20455;-76
2021/10/18 08:30:41;;;;;;;43.60;32.50;;;11.80;1.00;13.50;101449.00;;;;4966483;28;20457;-77
2021/10/18 08:33:09;;;;;;;47.23;34.53;;;11.80;1.00;13.50;101468.00;;;;4959383;28;20550;-76
2021/10/18 08:35:38;;;;;;;44.17;33.27;;;11.70;1.00;13.50;101468.00;;;;4960970;28;20463;-76
2021/10/18 08:38:18;;;;;;;43.00;33.00;;;11.80;1.00;13.40;101454.00;;;;4956798;28;20973;-78
2021/10/18 08:41:01;;;;;;;45.83;32.70;;;11.70;1.00;13.20;101453.00;;;;4960416;28;20854;-77
2021/10/18 08:46:12;;;;;;;50.30;33.20;;;11.60;1.00;13.10;101460.00;;;;4955415;28;20486;-77
2021/10/18 08:48:51;;;;;;;43.70;32.40;;;11.60;1.00;13.10;101464.00;;;;4957211;28;20657;-75
2021/10/18 08:51:21;;;;;;;42.50;31.50;;;11.50;1.00;12.90;101464.00;;;;4956819;28;21002;-76
2021/10/18 08:53:50;;;;;;;45.00;33.07;;;11.50;1.00;12.90;101478.00;;;;4960861;28;20881;-77
2021/10/18 08:56:21;;;;;;;41.57;32.97;;;11.40;1.00;12.90;101477.00;;;;4955469;28;20471;-74
2021/10/18 08:58:50;;;;;;;41.37;32.50;;;11.40;1.00;12.80;101471.00;;;;4951864;28;20491;-76
2021/10/18 09:01:18;;;;;;;45.47;33.50;;;11.30;1.00;12.90;101465.00;;;;4953818;28;20470;-76
2021/10/18 09:03:47;;;;;;;46.13;34.70;;;11.30;1.00;12.80;101271.00;;;;4952303;28;20480;-76
2021/10/18 09:06:18;;;;;;;45.27;34.33;;;11.30;1.00;12.80;101474.00;;;;4955500;28;20464;-75
2021/10/18 09:08:48;;;;;;;44.70;33.80;;;11.30;1.00;12.80;101469.00;;;;4953541;28;20463;-77
2021/10/18 09:11:21;;;;;;;48.77;33.47;;;11.30;1.00;12.90;101470.00;;;;4956663;28;20544;-75
2021/10/18 09:14:00;;;;;;;50.80;33.80;;;11.30;1.00;13.00;101486.00;;;;4956781;28;20495;-77
2021/10/18 09:16:31;;;;;;;40.83;31.47;;;11.40;1.00;13.20;101472.00;;;;4958649;28;20484;-77
2021/10/18 09:19:06;;;;;;;38.53;30.83;;;11.60;1.00;12.80;101480.00;;;;4959351;28;20541;-77
2021/10/18 09:21:37;;;;;;;39.20;29.40;;;11.80;1.00;13.50;101472.00;;;;4960784;28;20459;-75
2021/10/18 09:24:08;;;;;;;41.60;31.80;;;11.90;1.00;13.70;101481.00;;;;4965771;28;20474;-77
2021/10/18 09:26:40;;;;;;;42.47;28.50;;;12.00;1.00;13.70;101483.00;;;;4977076;28;20530;-76
2021/10/18 09:29:11;;;;;;;45.90;33.73;;;12.00;1.00;13.70;101471.00;;;;4990536;28;20428;-75
2021/10/18 09:31:43;;;;;;;36.20;29.23;;;12.00;1.00;13.70;101491.00;;;;4957995;28;20464;-78
2021/10/18 09:34:14;;;;;;;38.60;29.27;;;12.00;1.00;13.70;101500.00;;;;4953389;28;20487;-77
2021/10/18 09:36:44;;;;;;;37.33;29.00;;;12.00;1.00;13.80;101475.00;;;;4957640;28;20475;-76
2021/10/18 09:39:28;;;;;;;44.27;29.43;;;12.10;1.00;13.70;101495.00;;;;4954012;28;20456;-75
2021/10/18 09:42:02;;;;;;;43.87;31.10;;;12.10;1.00;13.70;101480.00;;;;4951893;28;21028;-75
2021/10/18 10:54:07;;;;;;;24.13;20.70;;;13.20;1.00;15.20;101469.00;;;;4951463;28;20558;-76
2021/10/18 10:56:43;;;;;;;28.70;22.50;;;13.10;1.00;15.30;101463.00;;;;4955583;28;20459;-78
2021/10/18 10:59:21;;;;;;;26.27;22.80;;;13.20;1.00;15.30;101476.00;;;;4954408;28;20973;-76
2021/10/18 11:01:59;;;;;;;28.17;22.33;;;13.30;1.00;15.40;101460.00;;;;4959093;28;20559;-76
2021/10/18 11:04:47;;;;;;;28.47;22.90;;;13.30;1.00;15.40;101442.00;;;;4957584;28;20483;-78
2021/10/18 11:07:20;;;;;;;30.23;23.67;;;13.30;1.00;15.40;101457.00;;;;4954988;28;20455;-78
2021/10/18 11:09:51;;;;;;;28.23;23.47;;;13.40;1.00;15.50;101448.00;;;;4956302;28;20452;-75
2021/10/18 11:12:29;;;;;;;30.20;23.53;;;13.40;1.00;15.60;101439.00;;;;4956283;28;20452;-75
2021/10/18 11:15:05;;;;;;;29.20;23.27;;;13.50;1.00;15.50;101434.00;;;;4953703;28;20500;-77
2021/10/18 11:17:36;;;;;;;26.63;22.20;;;13.60;1.00;15.40;101429.00;;;;4955058;28;20522;-76
2021/10/18 11:20:10;;;;;;;32.50;24.77;;;13.50;1.00;15.40;101444.00;;;;4957760;28;20468;-77
2021/10/18 11:22:41;;;;;;;25.70;22.67;;;13.40;1.00;15.30;101433.00;;;;4959242;28;20547;-76
2021/10/18 11:25:13;;;;;;;27.50;22.97;;;13.40;1.00;15.40;101434.00;;;;4959750;28;20531;-76
2021/10/18 11:27:44;;;;;;;25.87;22.20;;;13.40;1.00;15.40;101438.00;;;;4960177;28;20468;-76
2021/10/18 11:30:20;;;;;;;25.43;21.53;;;13.50;1.00;15.40;101439.00;;;;4958671;28;20463;-77
2021/10/18 11:32:58;;;;;;;27.63;23.03;;;13.50;1.00;15.40;101442.00;;;;4960392;28;21128;-76
2021/10/18 11:35:32;;;;;;;29.20;24.00;;;13.40;1.00;15.40;101448.00;;;;4957982;28;20480;-79
2021/10/18 11:38:06;;;;;;;30.40;24.00;;;13.30;1.00;15.10;101437.00;;;;4959975;28;20463;-76
2021/10/18 11:40:38;;;;;;;32.93;24.23;;;13.30;1.00;15.20;101473.00;;;;4958984;28;20460;-76
2021/10/18 11:43:10;;;;;;;28.53;23.00;;;13.20;1.00;15.20;101448.00;;;;4950250;28;20492;-76
2021/10/18 11:45:40;;;;;;;25.60;21.93;;;13.20;1.00;14.90;101414.00;;;;4960258;28;20943;-77
2021/10/18 11:48:12;;;;;;;28.00;22.97;;;13.10;1.00;15.00;101417.00;;;;4962393;28;20447;-78
2021/10/18 11:50:43;;;;;;;31.03;22.83;;;13.20;1.00;15.20;101423.00;;;;4962332;28;20544;-78
2021/10/18 11:53:15;;;;;;;25.57;21.10;;;13.30;1.00;15.20;101417.00;;;;4958427;28;20522;-77
2021/10/18 11:55:48;;;;;;;25.07;20.80;;;13.30;1.00;15.10;101419.00;;;;4961261;28;20562;-79
2021/10/18 11:58:19;;;;;;;26.03;21.17;;;13.40;1.00;15.10;101405.00;;;;4958780;28;20459;-76
2021/10/18 12:00:57;;;;;;;29.27;22.13;;;13.40;1.00;15.20;101399.00;;;;4956172;28;20471;-78
2021/10/18 12:03:27;;;;;;;26.77;22.00;;;13.40;1.00;15.20;101379.00;;;;4961880;28;20572;-78
2021/10/18 12:05:59;;;;;;;25.17;22.27;;;13.40;1.00;15.40;101403.00;;;;4961235;28;20483;-77
2021/10/18 12:08:31;;;;;;;26.10;22.93;;;13.40;1.00;15.40;101403.00;;;;4952377;28;20456;-76